Time;durP1;ratioP1;P1;durP2;ratioP2;P2;SDS_P1;SDS_P2;PMS_P1;PMS_P2;Temp;Humidity;BMP_temperature;BMP_pressure;BME280_temperature;BME280_humidity;BME280_pressure;Samples;Min_cycle;Max_cycle;Signal;HPM_P1;HPM_P2
2021/03/06 00:00:22;;;;;;;11.75;5.88;;;2.00;61.70;;;;;;5052247;28;20048;-73
2021/03/06 00:02:47;;;;;;;11.23;6.38;;;1.90;61.70;;;;;;5052266;28;20397;-73
2021/03/06 00:05:13;;;;;;;11.85;6.57;;;1.90;61.90;;;;;;5052181;28;20025;-73
2021/03/06 00:07:40;;;;;;;13.95;6.55;;;2.00;62.00;;;;;;5052155;28;20024;-74
2021/03/06 00:10:11;;;;;;;11.05;6.22;;;1.90;62.20;;;;;;5051968;28;20397;-73
2021/03/06 00:12:37;;;;;;;9.60;6.07;;;2.00;62.30;;;;;;5052130;28;20049;-75
2021/03/06 00:15:04;;;;;;;13.00;7.65;;;2.00;62.20;;;;;;5034108;28;20025;-74
2021/03/06 00:17:30;;;;;;;13.60;7.28;;;2.00;62.10;;;;;;5052030;28;20024;-73
2021/03/06 00:19:55;;;;;;;13.50;7.22;;;1.90;62.10;;;;;;5052088;28;20033;-73
2021/03/06 00:22:21;;;;;;;13.32;7.63;;;1.90;62.20;;;;;;5051933;28;20025;-74
2021/03/06 00:24:46;;;;;;;14.52;8.43;;;1.90;62.50;;;;;;5051968;28;20112;-73
2021/03/06 00:27:13;;;;;;;18.35;9.43;;;1.90;62.60;;;;;;5051957;28;20032;-73
2021/03/06 00:29:38;;;;;;;13.93;8.13;;;1.80;62.80;;;;;;5055204;28;20072;-73
2021/03/06 00:32:04;;;;;;;15.88;8.35;;;1.80;63.30;;;;;;5055729;28;20539;-74
2021/03/06 00:34:30;;;;;;;11.77;7.63;;;1.80;63.60;;;;;;5055631;28;20446;-73
2021/03/06 00:36:55;;;;;;;13.45;7.43;;;1.70;63.80;;;;;;5055613;28;20040;-73
2021/03/06 00:39:21;;;;;;;10.65;7.20;;;1.80;64.00;;;;;;5037749;28;20817;-72
2021/03/06 00:41:46;;;;;;;9.90;6.93;;;1.70;64.00;;;;;;5055566;28;20393;-73
2021/03/06 00:44:12;;;;;;;11.35;7.43;;;1.60;64.10;;;;;;5055452;28;20032;-73
2021/03/06 00:46:37;;;;;;;14.73;8.95;;;1.60;64.40;;;;;;5055369;28;20036;-73
2021/03/06 00:49:03;;;;;;;13.15;9.23;;;1.70;64.90;;;;;;5055260;28;20090;-73
2021/03/06 00:51:29;;;;;;;15.48;9.30;;;1.60;65.10;;;;;;5055319;28;20412;-73
2021/03/06 00:53:54;;;;;;;12.60;8.05;;;1.60;65.60;;;;;;5037324;28;20032;-73
2021/03/06 00:56:20;;;;;;;13.43;8.95;;;1.60;65.80;;;;;;5037316;28;20028;-73
2021/03/06 00:58:45;;;;;;;15.40;8.13;;;1.60;66.00;;;;;;5055221;28;20025;-73
2021/03/06 01:01:12;;;;;;;15.80;9.85;;;1.60;65.90;;;;;;5055095;28;20473;-73
2021/03/06 01:03:38;;;;;;;13.13;8.95;;;1.60;65.90;;;;;;5055213;28;20029;-73
2021/03/06 01:06:05;;;;;;;16.60;9.52;;;1.60;66.10;;;;;;5055054;28;20025;-73
2021/03/06 01:08:31;;;;;;;13.98;8.57;;;1.50;66.30;;;;;;5054952;28;20029;-72
2021/03/06 01:10:57;;;;;;;13.93;9.40;;;1.50;66.20;;;;;;5054932;28;20040;-73
2021/03/06 01:13:24;;;;;;;16.95;9.10;;;1.50;66.30;;;;;;5054673;28;20037;-73
2021/03/06 01:15:49;;;;;;;11.95;8.50;;;1.50;66.30;;;;;;5054810;28;20048;-73
2021/03/06 01:18:15;;;;;;;14.75;9.27;;;1.50;66.20;;;;;;5054844;28;20021;-73
2021/03/06 01:20:41;;;;;;;13.02;8.48;;;1.50;66.10;;;;;;5036850;28;20550;-74
2021/03/06 01:23:07;;;;;;;12.73;8.55;;;1.50;66.30;;;;;;5054670;28;20041;-73
2021/03/06 01:25:32;;;;;;;11.55;7.63;;;1.50;66.30;;;;;;5057458;28;20029;-74
2021/03/06 01:27:58;;;;;;;12.80;8.43;;;1.50;66.40;;;;;;5058847;28;20032;-74
2021/03/06 01:30:25;;;;;;;12.77;9.00;;;1.40;67.00;;;;;;5057521;28;20033;-73
2021/03/06 01:32:52;;;;;;;16.35;8.98;;;1.40;66.20;;;;;;5054706;28;20096;-73
2021/03/06 01:35:22;;;;;;;13.50;8.80;;;1.40;66.20;;;;;;5036468;28;20033;-73
2021/03/06 01:37:48;;;;;;;14.20;9.13;;;1.40;66.20;;;;;;5054589;28;20457;-73
2021/03/06 01:40:17;;;;;;;10.60;7.45;;;1.40;66.20;;;;;;5054006;28;20047;-73
2021/03/06 01:42:42;;;;;;;13.98;8.15;;;1.40;66.30;;;;;;5054361;28;20067;-73
2021/03/06 01:45:09;;;;;;;15.20;8.68;;;1.40;66.40;;;;;;5054136;28;20021;-71
2021/03/06 01:47:35;;;;;;;11.73;8.40;;;1.40;66.50;;;;;;5054388;28;20033;-74
2021/03/06 01:50:02;;;;;;;14.50;8.73;;;1.40;66.50;;;;;;5036204;28;20033;-73
2021/03/06 01:52:28;;;;;;;14.45;9.10;;;1.40;66.40;;;;;;5054202;28;20053;-73
2021/03/06 01:54:56;;;;;;;14.52;9.25;;;1.40;66.20;;;;;;5054209;28;20076;-72
2021/03/06 01:57:22;;;;;;;16.52;9.75;;;1.40;66.00;;;;;;5053978;28;20039;-72
2021/03/06 01:59:48;;;;;;;14.02;8.38;;;1.40;66.10;;;;;;5053945;28;20095;-72
2021/03/06 02:02:14;;;;;;;13.52;8.65;;;1.40;66.00;;;;;;5053977;28;20047;-72
2021/03/06 02:04:39;;;;;;;13.43;8.00;;;1.50;66.00;;;;;;5053905;28;20033;-72
2021/03/06 02:07:05;;;;;;;15.48;9.32;;;1.50;65.70;;;;;;5053885;28;20100;-73
2021/03/06 02:09:31;;;;;;;12.82;8.80;;;1.50;65.60;;;;;;5053660;28;20112;-72
2021/03/06 02:12:11;;;;;;;15.25;8.98;;;1.40;65.40;;;;;;5053622;28;20288;-72
2021/03/06 02:14:58;;;;;;;12.73;8.23;;;1.40;65.50;;;;;;5053726;28;20064;-72
2021/03/06 02:17:35;;;;;;;13.73;8.60;;;1.40;65.50;;;;;;5053705;28;20027;-72
2021/03/06 02:20:22;;;;;;;12.48;8.43;;;1.40;65.40;;;;;;5035663;28;20023;-73
2021/03/06 02:23:13;;;;;;;11.82;7.68;;;1.30;65.00;;;;;;5053657;28;20106;-73
2021/03/06 02:26:03;;;;;;;13.43;8.00;;;1.30;64.70;;;;;;5053533;28;20021;-73
2021/03/06 02:29:02;;;;;;;10.90;7.63;;;1.30;64.40;;;;;;5053557;28;20021;-73
2021/03/06 02:31:31;;;;;;;11.15;7.30;;;1.30;63.80;;;;;;5053457;28;20104;-72
2021/03/06 02:34:23;;;;;;;11.50;7.45;;;1.30;63.30;;;;;;5053301;28;20052;-73
2021/03/06 02:36:55;;;;;;;10.88;7.18;;;1.30;63.00;;;;;;5051248;28;20485;-72
2021/03/06 02:39:25;;;;;;;10.98;6.50;;;1.20;62.50;;;;;;5053065;28;20059;-72
2021/03/06 02:41:52;;;;;;;9.00;6.43;;;1.30;61.80;;;;;;5052937;28;20035;-72
2021/03/06 02:44:20;;;;;;;8.02;6.10;;;1.20;61.50;;;;;;5052898;28;20020;-72
2021/03/06 02:46:47;;;;;;;8.75;6.22;;;1.20;60.90;;;;;;5053005;28;20036;-72
2021/03/06 02:49:13;;;;;;;8.70;5.93;;;1.20;60.50;;;;;;5053031;28;20021;-73
2021/03/06 02:51:40;;;;;;;9.60;5.70;;;1.20;60.00;;;;;;5052094;28;20029;-73
2021/03/06 02:54:06;;;;;;;10.02;5.97;;;1.10;59.20;;;;;;5052702;28;20022;-73
2021/03/06 02:56:33;;;;;;;10.45;5.80;;;1.10;59.00;;;;;;5052705;28;20104;-72
2021/03/06 02:59:14;;;;;;;8.30;5.45;;;1.00;58.70;;;;;;5052501;28;20028;-73
2021/03/06 03:02:05;;;;;;;7.82;5.30;;;1.10;58.60;;;;;;5052671;28;20036;-72
2021/03/06 03:04:58;;;;;;;7.28;5.43;;;1.00;58.40;;;;;;5052572;28;20025;-72
2021/03/06 03:07:51;;;;;;;6.63;4.78;;;1.10;58.10;;;;;;5052659;28;20021;-73
2021/03/06 03:10:19;;;;;;;7.22;4.43;;;1.00;57.20;;;;;;5046896;28;20075;-73
2021/03/06 03:12:51;;;;;;;8.35;4.75;;;0.80;55.30;;;;;;5052245;28;20049;-73
2021/03/06 03:15:25;;;;;;;5.38;3.72;;;0.80;55.00;;;;;;5052326;28;20090;-72
2021/03/06 03:17:53;;;;;;;4.77;3.70;;;0.80;54.50;;;;;;5052491;28;20105;-72
2021/03/06 03:20:24;;;;;;;5.70;3.92;;;0.70;54.10;;;;;;5052230;28;20771;-73
2021/03/06 03:22:55;;;;;;;7.60;3.85;;;0.60;53.80;;;;;;5052286;28;20052;-73
2021/03/06 03:25:21;;;;;;;9.10;3.85;;;0.60;53.80;;;;;;5052194;28;20024;-72
2021/03/06 03:27:48;;;;;;;6.20;4.07;;;0.50;53.60;;;;;;5052273;28;20056;-72
2021/03/06 03:30:17;;;;;;;5.55;3.53;;;0.50;53.60;;;;;;5034060;28;20405;-74
2021/03/06 03:32:48;;;;;;;5.43;3.80;;;0.50;53.70;;;;;;5052170;28;20021;-72
2021/03/06 03:35:16;;;;;;;4.90;2.83;;;0.50;53.70;;;;;;5034330;28;20454;-72
2021/03/06 03:37:48;;;;;;;6.68;3.20;;;0.50;53.70;;;;;;5052200;28;20035;-72
2021/03/06 03:40:16;;;;;;;6.70;3.65;;;0.60;53.50;;;;;;5052104;28;20077;-73
2021/03/06 03:42:42;;;;;;;8.82;3.72;;;0.50;53.50;;;;;;5051975;28;20435;-73
2021/03/06 03:45:12;;;;;;;6.45;3.72;;;0.50;53.30;;;;;;5051940;28;20029;-72
2021/03/06 03:47:39;;;;;;;5.07;2.97;;;0.60;53.10;;;;;;5052066;28;20036;-72
2021/03/06 03:50:07;;;;;;;4.20;3.00;;;0.40;52.80;;;;;;5051853;28;20072;-73
2021/03/06 03:52:37;;;;;;;5.53;2.85;;;0.40;52.70;;;;;;5052049;28;20021;-73
2021/03/06 03:55:04;;;;;;;4.43;3.03;;;0.40;52.90;;;;;;5051914;28;20056;-74
2021/03/06 03:57:30;;;;;;;6.32;3.58;;;0.50;52.60;;;;;;5051972;28;20032;-74
2021/03/06 03:59:55;;;;;;;3.95;3.30;;;0.40;52.10;;;;;;5052117;28;20017;-73
2021/03/06 04:02:22;;;;;;;4.13;3.15;;;0.40;52.00;;;;;;5053414;28;20068;-73
2021/03/06 04:04:48;;;;;;;4.82;3.05;;;0.40;51.90;;;;;;5056157;28;20517;-73
2021/03/06 04:07:13;;;;;;;4.55;3.05;;;0.40;52.80;;;;;;5056105;28;20052;-73
2021/03/06 04:09:39;;;;;;;6.00;3.63;;;0.40;52.20;;;;;;5056016;28;20489;-73
2021/03/06 04:12:05;;;;;;;5.40;3.55;;;0.50;52.40;;;;;;5055754;28;20044;-73
2021/03/06 04:14:31;;;;;;;5.68;3.42;;;0.40;52.20;;;;;;5055925;28;20051;-72
2021/03/06 04:16:56;;;;;;;4.60;3.42;;;0.40;52.20;;;;;;5055957;28;20526;-72
2021/03/06 04:19:22;;;;;;;5.45;3.42;;;0.40;52.40;;;;;;5037896;28;20031;-73
2021/03/06 04:21:47;;;;;;;5.32;3.85;;;0.40;52.60;;;;;;5055905;28;20079;-73
2021/03/06 04:24:13;;;;;;;4.20;3.45;;;0.40;52.60;;;;;;5055699;28;20029;-73
2021/03/06 04:26:38;;;;;;;6.35;3.65;;;0.30;52.80;;;;;;5055840;28;20095;-74
2021/03/06 04:29:04;;;;;;;8.30;4.43;;;0.30;53.00;;;;;;5055565;28;20033;-73
2021/03/06 04:31:29;;;;;;;6.43;4.03;;;0.30;53.30;;;;;;5055700;28;20044;-74
2021/03/06 04:33:55;;;;;;;5.93;4.10;;;0.30;53.50;;;;;;5055605;28;20155;-74
2021/03/06 04:36:20;;;;;;;7.78;5.03;;;0.30;53.90;;;;;;5037526;28;20025;-74
2021/03/06 04:38:46;;;;;;;5.10;4.30;;;0.30;54.90;;;;;;5055702;28;20377;-74
2021/03/06 04:41:11;;;;;;;6.18;4.47;;;0.30;54.30;;;;;;5055490;28;20025;-74
2021/03/06 04:43:37;;;;;;;8.40;5.10;;;0.20;54.40;;;;;;5055493;28;20040;-73
2021/03/06 04:46:03;;;;;;;5.60;4.47;;;0.20;54.70;;;;;;5055483;28;20025;-73
2021/03/06 04:48:28;;;;;;;6.55;4.50;;;0.20;55.10;;;;;;5055377;28;20025;-73
2021/03/06 04:50:54;;;;;;;8.00;4.93;;;0.20;55.40;;;;;;5055276;28;20083;-74
2021/03/06 04:53:19;;;;;;;8.00;4.70;;;0.20;55.40;;;;;;5037194;28;20025;-74
2021/03/06 04:55:45;;;;;;;8.13;4.60;;;0.20;55.50;;;;;;5055058;28;20021;-73
2021/03/06 04:58:10;;;;;;;8.85;4.57;;;0.20;55.60;;;;;;5054981;28;20045;-74
2021/03/06 05:00:36;;;;;;;7.28;5.57;;;0.10;55.60;;;;;;5055031;28;20057;-73
2021/03/06 05:03:02;;;;;;;7.80;5.10;;;0.00;55.80;;;;;;5054983;28;20032;-73
2021/03/06 05:05:27;;;;;;;11.05;5.53;;;0.00;56.20;;;;;;5055024;28;20067;-73
2021/03/06 05:07:53;;;;;;;8.23;5.63;;;0.10;56.60;;;;;;5054974;28;20424;-73
2021/03/06 05:10:21;;;;;;;9.13;5.38;;;0.00;56.60;;;;;;5055326;28;20458;-73
2021/03/06 05:12:47;;;;;;;6.63;5.20;;;0.00;56.70;;;;;;5055362;28;20045;-73
2021/03/06 05:15:12;;;;;;;10.55;6.68;;;0.00;57.00;;;;;;5054727;28;20032;-72
2021/03/06 05:17:38;;;;;;;8.18;5.43;;;0.00;57.30;;;;;;5055437;28;20017;-72
2021/03/06 05:20:04;;;;;;;8.27;5.55;;;-0.10;57.60;;;;;;5055322;28;20082;-73
2021/03/06 05:22:30;;;;;;;7.53;5.55;;;-0.10;57.90;;;;;;5055348;28;20032;-74
2021/03/06 05:24:55;;;;;;;9.80;6.65;;;-0.10;58.10;;;;;;5055274;28;20033;-74
2021/03/06 05:27:21;;;;;;;27.30;13.20;;;-0.10;58.50;;;;;;5037248;28;20091;-73
2021/03/06 05:29:47;;;;;;;32.15;13.38;;;0.00;58.80;;;;;;5055017;28;20501;-73
2021/03/06 05:32:12;;;;;;;15.68;8.75;;;-0.10;58.80;;;;;;5054993;28;20027;-73
2021/03/06 05:34:38;;;;;;;15.48;8.35;;;-0.10;58.70;;;;;;5055032;28;20032;-73
2021/03/06 05:37:03;;;;;;;11.80;6.50;;;-0.10;58.70;;;;;;5054929;28;20017;-73
2021/03/06 05:39:29;;;;;;;10.75;6.30;;;-0.20;59.30;;;;;;5054971;28;20033;-73
2021/03/06 05:41:55;;;;;;;13.45;6.60;;;-0.30;58.80;;;;;;5054846;28;20048;-73
2021/03/06 05:44:21;;;;;;;10.70;5.75;;;-0.30;59.00;;;;;;5054782;28;20108;-73
2021/03/06 05:46:46;;;;;;;12.45;6.85;;;-0.30;59.40;;;;;;5054822;28;20080;-73
2021/03/06 05:49:13;;;;;;;12.15;7.57;;;-0.40;59.50;;;;;;5054613;28;20021;-73
2021/03/06 05:51:40;;;;;;;12.52;7.38;;;-0.40;59.90;;;;;;5054657;28;20139;-72
2021/03/06 05:54:08;;;;;;;15.77;8.75;;;-0.50;60.60;;;;;;5054878;28;20100;-72
2021/03/06 05:56:37;;;;;;;14.65;9.00;;;-0.50;61.50;;;;;;5036802;28;20032;-72
2021/03/06 05:59:03;;;;;;;17.27;10.15;;;-0.50;62.30;;;;;;5054574;28;20052;-72
2021/03/06 06:01:31;;;;;;;20.35;9.52;;;-0.50;63.10;;;;;;5054489;28;20109;-72
2021/03/06 06:04:00;;;;;;;15.10;9.95;;;-0.40;63.50;;;;;;5054338;28;20074;-72
2021/03/06 06:06:27;;;;;;;18.02;9.93;;;-0.40;64.00;;;;;;5054396;28;20036;-73
2021/03/06 06:08:53;;;;;;;14.70;9.18;;;-0.40;64.10;;;;;;5036631;28;20112;-74
2021/03/06 06:11:19;;;;;;;13.63;8.43;;;-0.40;63.90;;;;;;5036275;28;20024;-73
2021/03/06 06:13:44;;;;;;;10.65;7.90;;;-0.50;63.60;;;;;;5036491;28;20033;-73
2021/03/06 06:16:10;;;;;;;10.48;7.10;;;-0.40;63.20;;;;;;5054162;28;20023;-73
2021/03/06 06:18:36;;;;;;;11.13;8.07;;;-0.40;62.70;;;;;;5054103;28;20359;-73
2021/03/06 06:21:02;;;;;;;13.07;8.10;;;-0.40;62.20;;;;;;5053937;28;20032;-73
2021/03/06 06:23:28;;;;;;;12.60;7.25;;;-0.40;62.10;;;;;;5054062;28;20067;-73
2021/03/06 06:25:54;;;;;;;11.93;7.82;;;-0.40;61.70;;;;;;5053175;28;20032;-73
2021/03/06 06:28:19;;;;;;;13.40;7.80;;;-0.60;61.40;;;;;;5054019;28;20464;-73
2021/03/06 06:31:11;;;;;;;15.18;9.35;;;-0.60;61.60;;;;;;5036077;28;20036;-73
2021/03/06 06:33:37;;;;;;;15.45;9.40;;;-0.80;61.80;;;;;;5048270;28;20037;-73
2021/03/06 06:36:02;;;;;;;12.48;7.93;;;-0.80;62.10;;;;;;5054006;28;20055;-73
2021/03/06 06:38:41;;;;;;;14.88;8.43;;;-0.70;62.40;;;;;;5053859;28;20024;-73
2021/03/06 06:41:07;;;;;;;14.15;9.07;;;-0.60;62.70;;;;;;5053860;28;20362;-73
2021/03/06 06:43:32;;;;;;;11.73;7.88;;;-0.60;62.80;;;;;;5053866;28;20078;-74
2021/03/06 06:45:58;;;;;;;12.25;7.93;;;-0.50;62.90;;;;;;5053996;28;20103;-74
2021/03/06 06:48:24;;;;;;;18.63;8.15;;;-0.50;62.80;;;;;;5055219;28;20021;-75
2021/03/06 06:50:50;;;;;;;15.93;10.02;;;0.10;74.70;;;;;;5057763;28;20029;-79
2021/03/06 06:53:26;;;;;;;16.65;10.05;;;1.40;93.70;;;;;;5069225;28;20024;-77
2021/03/06 06:55:51;;;;;;;11.38;7.80;;;1.70;86.20;;;;;;5068101;28;20017;-77
2021/03/06 06:58:17;;;;;;;14.75;8.70;;;2.10;78.90;;;;;;5068101;28;20076;-77
2021/03/06 07:00:43;;;;;;;19.35;8.75;;;2.10;72.00;;;;;;5071838;28;20025;-77
2021/03/06 07:03:08;;;;;;;22.23;11.48;;;3.20;70.40;;;;;;5058842;28;20526;-74
2021/03/06 07:05:38;;;;;;;20.25;10.63;;;3.30;62.50;;;;;;5056388;28;20543;-74
2021/03/06 07:08:20;;;;;;;26.80;13.80;;;3.30;59.70;;;;;;5054531;28;20025;-74
2021/03/06 07:10:46;;;;;;;28.45;14.65;;;3.30;59.90;;;;;;5053775;28;20069;-74
2021/03/06 07:13:14;;;;;;;23.95;13.00;;;3.20;59.30;;;;;;5053214;28;20095;-73
2021/03/06 07:15:41;;;;;;;17.10;10.18;;;3.00;58.60;;;;;;5053504;28;20051;-73
2021/03/06 07:18:09;;;;;;;18.13;9.85;;;3.10;59.60;;;;;;5053428;28;20075;-74
2021/03/06 07:20:37;;;;;;;14.65;9.52;;;3.10;58.50;;;;;;5053613;28;20097;-73
2021/03/06 07:23:13;;;;;;;13.48;8.07;;;3.30;58.90;;;;;;5053144;28;20104;-73
2021/03/06 07:25:39;;;;;;;14.55;8.75;;;3.40;58.20;;;;;;5053286;28;20486;-78
2021/03/06 07:28:06;;;;;;;10.60;8.35;;;3.60;58.90;;;;;;5053009;28;20056;-72
2021/03/06 07:30:31;;;;;;;13.45;8.35;;;3.30;55.50;;;;;;5053026;28;20043;-73
2021/03/06 07:33:00;;;;;;;15.55;9.55;;;2.90;53.00;;;;;;5053106;28;20029;-72
2021/03/06 07:35:26;;;;;;;11.02;8.30;;;2.30;53.30;;;;;;5053146;28;20465;-73
2021/03/06 07:37:58;;;;;;;17.73;9.68;;;2.20;54.10;;;;;;5052607;28;20060;-73
2021/03/06 07:40:30;;;;;;;18.65;10.38;;;2.20;54.50;;;;;;5052861;28;20457;-73
2021/03/06 07:42:58;;;;;;;14.52;9.48;;;2.20;54.90;;;;;;5052838;28;20489;-73
2021/03/06 07:45:27;;;;;;;15.57;9.32;;;2.10;55.40;;;;;;5052845;28;20464;-73
2021/03/06 07:48:00;;;;;;;16.77;9.43;;;2.00;56.00;;;;;;5052610;28;20485;-73
2021/03/06 07:50:29;;;;;;;14.63;9.48;;;1.80;56.70;;;;;;5053043;28;20382;-73
2021/03/06 07:53:00;;;;;;;16.83;9.02;;;1.70;57.10;;;;;;5052906;28;20025;-72
2021/03/06 07:55:27;;;;;;;16.15;9.90;;;1.80;56.90;;;;;;5052669;28;20428;-73
2021/03/06 07:58:06;;;;;;;13.13;9.10;;;1.80;56.90;;;;;;5052641;28;20040;-74
2021/03/06 08:00:54;;;;;;;15.05;10.50;;;1.80;57.10;;;;;;5052636;28;20028;-72
2021/03/06 08:03:38;;;;;;;16.52;10.85;;;1.80;57.10;;;;;;5052650;28;20124;-73
2021/03/06 08:06:23;;;;;;;16.13;10.43;;;1.70;58.00;;;;;;5053169;28;20028;-73
2021/03/06 08:09:01;;;;;;;16.40;10.50;;;1.80;58.10;;;;;;5052686;28;20017;-73
2021/03/06 08:11:38;;;;;;;25.70;15.32;;;1.90;58.20;;;;;;5034936;28;20029;-72
2021/03/06 08:14:06;;;;;;;20.17;11.90;;;2.10;58.20;;;;;;5053064;28;20113;-73
2021/03/06 08:16:32;;;;;;;17.13;10.23;;;2.10;58.30;;;;;;5052638;28;20108;-73
2021/03/06 08:19:01;;;;;;;12.98;9.30;;;2.30;57.80;;;;;;5052351;28;20025;-72
2021/03/06 08:21:36;;;;;;;14.30;10.35;;;2.50;57.30;;;;;;5035483;28;20025;-72
2021/03/06 08:24:21;;;;;;;;;;;2.60;57.00;;;;;;5053311;28;20104;-75
2021/03/06 08:27:02;;;;;;;15.18;10.30;;;2.70;56.70;;;;;;5052637;28;19904;-72
2021/03/06 08:29:27;;;;;;;18.02;10.77;;;2.90;56.30;;;;;;5052233;28;20132;-74
2021/03/06 08:32:00;;;;;;;14.82;9.95;;;3.00;55.70;;;;;;5052379;28;20025;-72
2021/03/06 08:34:26;;;;;;;19.20;14.13;;;3.00;55.30;;;;;;5052364;28;20044;-73
2021/03/06 08:36:52;;;;;;;17.45;11.18;;;3.10;55.40;;;;;;5034477;28;20473;-73
2021/03/06 08:39:18;;;;;;;19.65;11.75;;;3.30;56.00;;;;;;5052290;28;20120;-73
2021/03/06 08:41:44;;;;;;;17.48;11.25;;;3.10;55.10;;;;;;5052086;28;20100;-73
2021/03/06 08:44:09;;;;;;;14.43;9.20;;;3.10;54.80;;;;;;5052141;28;20056;-74
2021/03/06 08:46:40;;;;;;;12.60;9.27;;;3.30;54.90;;;;;;5052067;28;20021;-72
2021/03/06 08:49:07;;;;;;;15.57;9.88;;;3.60;54.50;;;;;;5052601;28;20025;-73
2021/03/06 08:51:32;;;;;;;14.02;9.20;;;3.80;54.80;;;;;;5055378;28;20485;-72
2021/03/06 08:53:58;;;;;;;13.40;9.55;;;4.00;53.60;;;;;;5055687;28;20025;-74
2021/03/06 08:56:36;;;;;;;11.90;8.82;;;4.20;53.00;;;;;;5055713;28;20114;-72
2021/03/06 08:59:01;;;;;;;12.45;9.00;;;4.50;52.80;;;;;;5055404;28;20166;-72
2021/03/06 09:01:35;;;;;;;14.65;9.70;;;4.60;52.20;;;;;;5055479;28;20100;-73
2021/03/06 09:04:00;;;;;;;21.52;13.93;;;4.80;51.50;;;;;;5055282;28;20504;-72
2021/03/06 09:06:39;;;;;;;13.80;9.48;;;5.00;50.60;;;;;;5037288;28;20025;-72
2021/03/06 09:09:08;;;;;;;12.90;8.18;;;5.10;49.10;;;;;;5037848;28;20025;-72
2021/03/06 09:11:54;;;;;;;9.20;7.47;;;5.30;48.10;;;;;;5055074;28;20100;-72
2021/03/06 09:14:20;;;;;;;;;;;5.40;47.10;;;;;;5048081;28;20446;-73
2021/03/06 09:16:48;;;;;;;;;;;5.50;46.40;;;;;;5056042;28;19935;-72
2021/03/06 09:19:25;;;;;;;11.85;7.85;;;5.70;46.40;;;;;;5055012;28;20343;-73
2021/03/06 09:22:01;;;;;;;11.15;7.32;;;5.80;45.60;;;;;;5055143;28;20025;-73
2021/03/06 09:24:46;;;;;;;9.52;7.28;;;5.90;44.90;;;;;;5055107;28;20037;-72
2021/03/06 09:27:13;;;;;;;11.30;8.20;;;6.10;44.80;;;;;;5054800;28;20043;-73
2021/03/06 09:29:39;;;;;;;11.63;7.45;;;6.30;44.70;;;;;;5055106;28;20047;-72
2021/03/06 09:32:06;;;;;;;8.45;6.95;;;6.30;43.60;;;;;;5036826;28;20017;-72
2021/03/06 09:34:31;;;;;;;9.88;6.95;;;6.40;42.60;;;;;;5036752;28;20467;-71
2021/03/06 09:36:57;;;;;;;11.27;7.25;;;6.50;42.00;;;;;;5054673;28;20080;-73
2021/03/06 09:39:24;;;;;;;8.88;6.50;;;6.60;41.70;;;;;;5054578;28;20469;-73
2021/03/06 09:41:49;;;;;;;11.10;6.88;;;6.90;41.10;;;;;;5055078;28;20033;-73
2021/03/06 09:44:16;;;;;;;11.35;6.53;;;7.10;40.50;;;;;;5054879;28;20029;-73
2021/03/06 09:46:43;;;;;;;8.25;6.10;;;7.20;39.70;;;;;;5054800;28;20025;-73
2021/03/06 09:49:11;;;;;;;7.55;6.13;;;7.40;39.00;;;;;;5054326;28;20074;-73
2021/03/06 09:51:45;;;;;;;8.45;6.47;;;7.60;38.80;;;;;;5051033;28;20063;-74
2021/03/06 09:54:12;;;;;;;8.82;6.35;;;7.70;38.10;;;;;;5054316;28;20374;-74
2021/03/06 09:57:06;;;;;;;8.57;5.72;;;7.90;37.30;;;;;;5054359;28;20041;-72
2021/03/06 09:59:37;;;;;;;8.10;6.15;;;8.10;36.60;;;;;;5051468;28;20033;-73
2021/03/06 10:02:07;;;;;;;9.07;6.20;;;8.20;35.70;;;;;;5054145;28;20021;-73
2021/03/06 10:04:34;;;;;;;7.20;5.50;;;8.40;35.00;;;;;;5036417;28;20068;-73
2021/03/06 10:07:07;;;;;;;7.50;5.78;;;8.40;34.40;;;;;;5054270;28;20021;-73
2021/03/06 10:09:33;;;;;;;6.90;5.32;;;8.50;34.30;;;;;;5053798;28;20025;-74
2021/03/06 10:12:09;;;;;;;7.13;5.35;;;8.70;34.00;;;;;;5053798;28;20053;-73
2021/03/06 10:14:36;;;;;;;4.68;4.18;;;8.90;33.80;;;;;;5053771;28;20017;-73
2021/03/06 10:17:05;;;;;;;6.80;5.40;;;9.10;33.00;;;;;;5053688;28;20377;-73
2021/03/06 10:19:52;;;;;;;15.50;5.55;;;9.30;32.60;;;;;;5053531;28;20029;-73
2021/03/06 10:22:20;;;;;;;5.60;4.55;;;9.40;32.10;;;;;;5052931;28;20239;-73
2021/03/06 10:25:06;;;;;;;6.07;4.90;;;9.50;31.40;;;;;;5035917;28;20025;-73
2021/03/06 10:27:36;;;;;;;6.35;4.70;;;9.60;31.30;;;;;;5053533;28;20028;-73
2021/03/06 10:30:16;;;;;;;5.63;4.45;;;9.70;30.70;;;;;;5053413;28;20392;-74
2021/03/06 10:32:55;;;;;;;5.78;4.68;;;9.80;30.60;;;;;;5053360;28;20083;-74
2021/03/06 10:35:40;;;;;;;5.38;3.92;;;9.90;30.90;;;;;;5053278;28;20453;-73
2021/03/06 10:38:12;;;;;;;4.40;3.60;;;10.00;30.50;;;;;;5035520;28;20063;-73
2021/03/06 10:40:52;;;;;;;4.38;3.78;;;10.10;29.50;;;;;;5053130;28;20266;-73
2021/03/06 10:43:32;;;;;;;5.28;4.25;;;10.40;28.90;;;;;;5053062;28;20032;-73
2021/03/06 10:46:14;;;;;;;4.95;3.85;;;10.50;28.40;;;;;;5053231;28;20478;-73
2021/03/06 10:48:52;;;;;;;6.97;3.65;;;10.50;27.30;;;;;;5053338;28;20036;-73
2021/03/06 10:51:18;;;;;;;7.07;3.58;;;10.30;26.80;;;;;;5034986;28;20497;-74
2021/03/06 10:53:58;;;;;;;4.50;3.90;;;10.00;26.20;;;;;;5035301;28;20025;-73
2021/03/06 10:56:24;;;;;;;4.85;3.75;;;10.00;26.10;;;;;;5052989;28;20501;-73
2021/03/06 10:58:50;;;;;;;4.90;4.10;;;10.20;26.40;;;;;;5053389;28;20017;-73
2021/03/06 11:01:16;;;;;;;7.18;4.10;;;10.50;26.40;;;;;;5053130;28;20029;-73
2021/03/06 11:03:43;;;;;;;7.55;3.33;;;10.70;26.10;;;;;;5053098;28;20021;-74
2021/03/06 11:06:10;;;;;;;5.93;3.95;;;10.80;25.40;;;;;;5052944;28;20537;-73
2021/03/06 11:08:36;;;;;;;3.80;3.38;;;10.70;25.00;;;;;;5035051;28;20048;-73
2021/03/06 11:11:02;;;;;;;5.63;3.65;;;10.80;24.80;;;;;;5035182;28;20481;-73
2021/03/06 11:13:45;;;;;;;5.20;3.22;;;10.90;24.10;;;;;;5034590;28;20052;-73
2021/03/06 11:16:14;;;;;;;4.35;3.22;;;10.90;23.60;;;;;;5034902;28;20025;-73
2021/03/06 11:18:43;;;;;;;3.90;2.90;;;11.10;23.20;;;;;;5034860;28;20025;-73
2021/03/06 11:21:14;;;;;;;4.20;2.95;;;11.20;22.50;;;;;;5034987;28;20437;-73
2021/03/06 11:23:40;;;;;;;4.72;3.22;;;11.40;22.10;;;;;;5035003;28;20139;-73
2021/03/06 11:26:06;;;;;;;5.70;3.40;;;11.30;21.80;;;;;;5034897;28;20069;-73
2021/03/06 11:28:35;;;;;;;4.45;3.20;;;11.20;21.40;;;;;;5034818;28;20028;-73
2021/03/06 11:31:02;;;;;;;5.40;3.13;;;11.40;21.40;;;;;;5034710;28;20198;-72
2021/03/06 11:33:28;;;;;;;4.60;3.03;;;11.70;21.60;;;;;;5035558;28;20017;-72
2021/03/06 11:35:53;;;;;;;5.05;3.22;;;11.90;21.80;;;;;;5035492;28;20086;-74
2021/03/06 11:38:22;;;;;;;5.13;3.40;;;12.20;21.70;;;;;;5053173;28;20036;-74
2021/03/06 11:40:49;;;;;;;4.20;3.10;;;12.40;21.60;;;;;;5034977;28;20556;-74
2021/03/06 11:43:15;;;;;;;4.05;3.10;;;12.70;21.20;;;;;;5034768;28;20033;-74
2021/03/06 11:45:42;;;;;;;4.10;3.30;;;12.90;20.60;;;;;;5034813;28;20024;-72
2021/03/06 11:48:08;;;;;;;3.22;2.92;;;13.20;20.50;;;;;;5034855;28;20032;-73
2021/03/06 11:50:44;;;;;;;3.63;2.95;;;13.40;20.10;;;;;;5052582;28;20523;-73
2021/03/06 11:53:09;;;;;;;;;;;13.40;19.40;;;;;;5052899;28;20040;-73
2021/03/06 11:55:36;;;;;;;4.70;3.25;;;13.50;19.30;;;;;;5052557;28;19905;-73
2021/03/06 11:58:02;;;;;;;2.97;2.67;;;13.50;19.10;;;;;;5052514;28;20025;-74
2021/03/06 12:00:29;;;;;;;3.55;2.38;;;13.40;18.40;;;;;;5052380;28;20543;-75
2021/03/06 12:02:55;;;;;;;3.42;2.75;;;13.50;18.20;;;;;;5052617;28;20044;-72
2021/03/06 12:05:21;;;;;;;3.42;2.80;;;13.30;18.00;;;;;;5052139;28;20496;-74
2021/03/06 12:07:47;;;;;;;3.65;2.67;;;13.30;17.90;;;;;;5052473;28;20036;-73
2021/03/06 12:10:18;;;;;;;4.32;3.38;;;13.30;17.50;;;;;;5052167;28;20033;-73
2021/03/06 12:12:45;;;;;;;3.55;2.85;;;13.40;17.60;;;;;;5051751;28;20093;-74
2021/03/06 12:15:12;;;;;;;3.70;2.83;;;13.50;17.60;;;;;;5034371;28;20036;-74
2021/03/06 12:17:38;;;;;;;4.50;2.95;;;13.50;17.70;;;;;;5052146;28;20021;-73
2021/03/06 12:20:05;;;;;;;3.92;3.10;;;13.60;17.60;;;;;;5052172;28;20044;-74
2021/03/06 12:22:30;;;;;;;3.00;2.58;;;13.70;17.40;;;;;;5052033;28;20026;-74
2021/03/06 12:24:56;;;;;;;3.92;2.50;;;13.60;17.00;;;;;;5054547;28;20100;-74
2021/03/06 12:27:22;;;;;;;3.42;2.70;;;13.70;16.80;;;;;;5055964;28;20106;-74
2021/03/06 12:29:47;;;;;;;4.50;3.40;;;13.80;16.70;;;;;;5055956;28;20025;-74
2021/03/06 12:32:13;;;;;;;3.75;2.60;;;13.80;16.70;;;;;;5055700;28;20032;-74
2021/03/06 12:34:39;;;;;;;5.00;2.65;;;14.00;16.60;;;;;;5055659;28;20135;-73
2021/03/06 12:37:05;;;;;;;3.97;2.40;;;13.90;16.10;;;;;;5037758;28;20027;-74
2021/03/06 12:39:31;;;;;;;4.38;2.55;;;14.00;15.90;;;;;;5055867;28;20203;-74
2021/03/06 12:41:57;;;;;;;3.28;2.80;;;14.10;15.90;;;;;;5055676;28;20056;-73
2021/03/06 12:44:23;;;;;;;3.22;2.92;;;14.20;15.90;;;;;;5055725;28;20017;-73
2021/03/06 12:46:49;;;;;;;4.90;3.28;;;14.30;15.90;;;;;;5055616;28;20033;-74
2021/03/06 12:49:19;;;;;;;5.22;3.38;;;14.20;15.80;;;;;;5037571;28;20025;-73
2021/03/06 12:51:45;;;;;;;3.40;2.40;;;14.30;16.00;;;;;;5055995;28;20021;-73
2021/03/06 12:54:11;;;;;;;3.28;2.50;;;14.60;15.80;;;;;;5055328;28;20044;-73
2021/03/06 12:56:36;;;;;;;3.05;2.50;;;14.70;15.40;;;;;;5055072;28;20048;-74